Time;durP1;ratioP1;P1;durP2;ratioP2;P2;SDS_P1;SDS_P2;PMS_P1;PMS_P2;Temp;Humidity;BMP_temperature;BMP_pressure;BME280_temperature;BME280_humidity;BME280_pressure;Samples;Min_cycle;Max_cycle;Signal;HPM_P1;HPM_P2
2023/02/01 00:01:20;;;;;;;4.97;4.03;;;;;;;;;;4918378;29;20036;-69
2023/02/01 00:03:46;;;;;;;3.97;3.55;;;;;;;;;;4901393;29;20036;-67
2023/02/01 00:06:12;;;;;;;6.63;4.13;;;;;;;;;;4917942;29;20708;-69
2023/02/01 00:08:37;;;;;;;5.30;3.88;;;;;;;;;;4917587;29;20043;-69
2023/02/01 00:11:05;;;;;;;5.03;3.33;;;;;;;;;;4917829;29;20036;-69
2023/02/01 00:13:32;;;;;;;5.70;4.35;;;;;;;;;;4917859;29;20108;-68
2023/02/01 00:16:04;;;;;;;5.47;3.90;;;;;;;;;;4901261;29;20020;-69
2023/02/01 00:18:29;;;;;;;5.97;3.83;;;;;;;;;;4917512;29;20091;-69
2023/02/01 00:20:55;;;;;;;5.93;4.00;;;;;;;;;;4900732;29;20067;-69
2023/02/01 00:23:20;;;;;;;4.50;3.70;;;;;;;;;;4917552;29;20096;-68
2023/02/01 00:25:45;;;;;;;3.53;2.70;;;;;;;;;;4917713;29;20036;-69
2023/02/01 00:28:12;;;;;;;7.43;3.78;;;;;;;;;;4901125;29;20066;-68
2023/02/01 00:30:38;;;;;;;5.30;3.63;;;;;;;;;;4900797;29;20127;-68
2023/02/01 00:33:03;;;;;;;3.72;3.38;;;;;;;;;;4900870;29;20112;-69
2023/02/01 00:35:29;;;;;;;4.70;3.20;;;;;;;;;;4917738;29;20039;-69
2023/02/01 00:37:54;;;;;;;5.47;3.60;;;;;;;;;;4900648;29;20115;-69
2023/02/01 00:40:19;;;;;;;5.55;4.03;;;;;;;;;;4917849;29;20040;-69
2023/02/01 00:42:45;;;;;;;3.45;2.78;;;;;;;;;;4917632;29;20499;-69
2023/02/01 00:45:10;;;;;;;4.22;2.85;;;;;;;;;;4900538;29;20040;-69
2023/02/01 00:47:35;;;;;;;4.97;3.53;;;;;;;;;;4917559;29;20059;-70
2023/02/01 00:50:02;;;;;;;4.15;3.58;;;;;;;;;;4917325;29;20652;-69
2023/02/01 00:52:27;;;;;;;4.75;3.00;;;;;;;;;;4885135;29;20488;-71
2023/02/01 00:54:52;;;;;;;3.00;2.75;;;;;;;;;;4917637;29;20032;-66
2023/02/01 00:57:18;;;;;;;5.03;4.13;;;;;;;;;;4917430;29;20047;-68
2023/02/01 00:59:43;;;;;;;2.25;1.95;;;;;;;;;;4900478;29;20032;-67
2023/02/01 01:02:10;;;;;;;7.18;4.70;;;;;;;;;;4900252;29;20032;-69
2023/02/01 01:04:37;;;;;;;6.55;4.35;;;;;;;;;;4883106;29;20081;-69
2023/02/01 01:07:03;;;;;;;1.45;1.17;;;;;;;;;;4913479;29;20028;-69
2023/02/01 01:09:29;;;;;;;9.13;5.50;;;;;;;;;;4892773;29;20075;-69
2023/02/01 01:11:54;;;;;;;2.83;1.42;;;;;;;;;;4890237;29;20034;-69
2023/02/01 01:14:20;;;;;;;3.88;2.38;;;;;;;;;;4899814;29;20461;-68
2023/02/01 01:16:47;;;;;;;5.38;3.88;;;;;;;;;;4901267;29;20048;-69
2023/02/01 01:19:12;;;;;;;4.80;3.80;;;;;;;;;;4910500;29;20035;-69
2023/02/01 01:21:37;;;;;;;2.97;2.63;;;;;;;;;;4915724;29;20016;-69
2023/02/01 01:24:03;;;;;;;2.35;2.10;;;;;;;;;;4917080;29;20064;-69
2023/02/01 01:26:29;;;;;;;2.38;2.17;;;;;;;;;;4916038;29;20471;-69
2023/02/01 01:28:56;;;;;;;2.88;2.30;;;;;;;;;;4915734;29;20036;-68
2023/02/01 01:31:22;;;;;;;2.28;2.08;;;;;;;;;;4915900;29;20028;-68
2023/02/01 01:33:48;;;;;;;2.25;1.88;;;;;;;;;;4916076;29;20093;-68
2023/02/01 01:36:16;;;;;;;2.25;2.05;;;;;;;;;;4915728;29;20028;-68
2023/02/01 01:38:41;;;;;;;2.53;2.08;;;;;;;;;;4916960;29;20036;-67
2023/02/01 01:41:08;;;;;;;2.92;1.75;;;;;;;;;;4915556;29;20032;-73
2023/02/01 01:43:49;;;;;;;3.00;1.67;;;;;;;;;;4914759;29;20040;-68
2023/02/01 01:46:19;;;;;;;2.25;1.30;;;;;;;;;;4915080;29;20040;-69
2023/02/01 01:48:45;;;;;;;2.20;1.50;;;;;;;;;;4915279;29;20101;-66
2023/02/01 01:51:15;;;;;;;1.33;0.95;;;;;;;;;;4915183;29;20056;-66
2023/02/01 01:53:44;;;;;;;1.35;1.20;;;;;;;;;;4916579;29;20116;-67
2023/02/01 01:56:11;;;;;;;1.30;1.20;;;;;;;;;;4916407;29;20027;-68
2023/02/01 01:58:37;;;;;;;2.50;1.70;;;;;;;;;;4915162;29;20444;-67
2023/02/01 02:01:02;;;;;;;1.48;1.00;;;;;;;;;;4915012;29;20055;-68
2023/02/01 02:03:44;;;;;;;0.98;0.88;;;;;;;;;;4915227;29;20036;-68
2023/02/01 02:06:26;;;;;;;1.48;0.88;;;;;;;;;;4915311;29;20040;-69
2023/02/01 02:08:51;;;;;;;1.67;1.00;;;;;;;;;;4915157;29;20037;-68
2023/02/01 02:11:17;;;;;;;1.77;1.10;;;;;;;;;;4916546;29;20353;-68
2023/02/01 02:13:44;;;;;;;2.70;1.05;;;;;;;;;;4916322;29;20040;-69
2023/02/01 02:16:10;;;;;;;0.98;0.80;;;;;;;;;;4916151;29;20032;-65
2023/02/01 02:18:35;;;;;;;1.73;1.00;;;;;;;;;;4883854;29;20040;-65
2023/02/01 02:21:06;;;;;;;2.28;1.10;;;;;;;;;;4916514;29;20056;-65
2023/02/01 02:24:08;;;;;;;1.67;0.85;;;;;;;;;;4900281;29;20515;-66
2023/02/01 02:26:33;;;;;;;1.50;0.98;;;;;;;;;;4791400;29;20030;-65
2023/02/01 02:29:02;;;;;;;1.48;1.02;;;;;;;;;;4896102;29;20131;-66
2023/02/01 02:31:31;;;;;;;1.77;1.13;;;;;;;;;;4916084;29;20047;-65
2023/02/01 02:34:12;;;;;;;2.35;1.08;;;;;;;;;;4883796;29;20051;-65
2023/02/01 02:36:43;;;;;;;2.05;0.88;;;;;;;;;;4883927;29;20167;-65
2023/02/01 02:39:15;;;;;;;2.50;1.10;;;;;;;;;;4899250;29;20032;-65
2023/02/01 02:47:35;;;;;;;1.45;0.93;;;;;;;;;;4915993;29;20044;-68
2023/02/01 03:04:17;;;;;;;3.22;1.05;;;;;;;;;;4902742;29;20032;-69
2023/02/01 03:06:45;;;;;;;1.55;0.90;;;;;;;;;;4902801;29;20060;-65
2023/02/01 03:09:20;;;;;;;2.28;1.15;;;;;;;;;;4886784;29;20465;-66
2023/02/01 03:14:33;;;;;;;2.17;0.77;;;;;;;;;;4902485;29;20111;-65
2023/02/01 03:17:01;;;;;;;0.95;0.80;;;;;;;;;;4905830;29;20056;-68
2023/02/01 03:19:30;;;;;;;1.40;0.98;;;;;;;;;;4918641;29;20036;-69
2023/02/01 03:22:02;;;;;;;1.35;0.77;;;;;;;;;;4918179;29;20032;-70
2023/02/01 03:24:32;;;;;;;1.90;0.85;;;;;;;;;;4914835;29;20036;-70
2023/02/01 03:27:05;;;;;;;1.33;0.80;;;;;;;;;;4887998;29;20040;-66
2023/02/01 03:29:34;;;;;;;1.98;0.85;;;;;;;;;;4889009;29;20484;-66
2023/02/01 03:32:00;;;;;;;2.72;1.10;;;;;;;;;;4917690;29;20107;-69
2023/02/01 03:34:25;;;;;;;2.05;1.00;;;;;;;;;;4917549;29;20119;-69
2023/02/01 03:36:57;;;;;;;1.60;1.13;;;;;;;;;;4917503;29;20035;-69
2023/02/01 03:39:32;;;;;;;1.38;0.82;;;;;;;;;;4917410;29;20067;-69
2023/02/01 03:41:59;;;;;;;1.17;0.80;;;;;;;;;;4917710;29;20039;-69
2023/02/01 03:44:38;;;;;;;1.45;0.77;;;;;;;;;;4917421;29;20493;-69
2023/02/01 03:47:10;;;;;;;2.13;1.17;;;;;;;;;;4917442;29;20035;-69
2023/02/01 03:49:37;;;;;;;0.90;0.70;;;;;;;;;;4917469;29;20039;-69
2023/02/01 03:52:05;;;;;;;1.58;0.80;;;;;;;;;;4917488;29;20024;-69
2023/02/01 03:54:31;;;;;;;1.20;0.80;;;;;;;;;;4918685;29;20024;-69
2023/02/01 03:56:59;;;;;;;1.13;1.00;;;;;;;;;;4917034;29;20496;-69
2023/02/01 03:59:30;;;;;;;2.10;0.80;;;;;;;;;;4918566;29;20043;-69
2023/02/01 04:01:56;;;;;;;2.85;1.02;;;;;;;;;;4917001;29;20067;-66
2023/02/01 04:04:21;;;;;;;0.85;0.70;;;;;;;;;;4916968;29;20072;-67
2023/02/01 04:06:50;;;;;;;0.98;0.88;;;;;;;;;;4916634;29;20028;-66
2023/02/01 04:09:16;;;;;;;1.52;0.90;;;;;;;;;;4917139;29;20115;-67
2023/02/01 04:11:42;;;;;;;2.65;1.20;;;;;;;;;;4918650;29;20024;-69
2023/02/01 04:14:08;;;;;;;2.13;1.00;;;;;;;;;;4918558;29;20036;-69
2023/02/01 04:16:34;;;;;;;1.98;0.90;;;;;;;;;;4917261;29;20059;-70
2023/02/01 04:18:59;;;;;;;1.23;0.93;;;;;;;;;;4918541;29;20040;-68
2023/02/01 04:21:25;;;;;;;1.63;0.75;;;;;;;;;;4917206;29;20036;-70
2023/02/01 04:23:51;;;;;;;2.35;0.77;;;;;;;;;;4916887;29;20016;-72
2023/02/01 04:26:16;;;;;;;1.80;0.95;;;;;;;;;;4901146;29;20032;-72
2023/02/01 04:28:41;;;;;;;1.67;0.68;;;;;;;;;;4918357;29;20036;-70
2023/02/01 04:31:07;;;;;;;1.25;0.90;;;;;;;;;;4918164;29;20040;-71
2023/02/01 04:33:32;;;;;;;1.48;0.80;;;;;;;;;;4917250;29;20032;-70
2023/02/01 04:35:57;;;;;;;1.38;1.00;;;;;;;;;;4912584;29;20492;-70
2023/02/01 04:38:23;;;;;;;1.85;0.80;;;;;;;;;;4900344;29;20031;-70
2023/02/01 04:40:49;;;;;;;1.00;0.90;;;;;;;;;;4899734;29;20033;-70
2023/02/01 04:43:15;;;;;;;2.38;1.00;;;;;;;;;;4904983;29;20028;-67
2023/02/01 04:45:41;;;;;;;2.40;1.23;;;;;;;;;;4910389;29;20092;-67
2023/02/01 04:48:06;;;;;;;2.28;1.00;;;;;;;;;;4913245;29;20044;-67
2023/02/01 04:50:32;;;;;;;1.90;1.02;;;;;;;;;;4919128;29;20044;-67
2023/02/01 04:52:57;;;;;;;2.85;1.05;;;;;;;;;;4919478;29;20027;-70
2023/02/01 04:55:22;;;;;;;2.10;1.20;;;;;;;;;;4918969;29;20034;-70
2023/02/01 04:57:47;;;;;;;1.92;0.95;;;;;;;;;;4917516;29;20040;-70
2023/02/01 05:00:13;;;;;;;2.85;1.23;;;;;;;;;;4918293;29;20070;-70
2023/02/01 05:02:38;;;;;;;3.00;1.08;;;;;;;;;;4918244;29;20044;-69
2023/02/01 05:05:04;;;;;;;2.67;1.20;;;;;;;;;;4918251;29;20027;-69
2023/02/01 05:07:29;;;;;;;2.38;1.00;;;;;;;;;;4901431;29;20028;-69
2023/02/01 05:09:54;;;;;;;1.70;1.08;;;;;;;;;;4916996;29;20462;-69
2023/02/01 05:15:05;;;;;;;1.80;1.08;;;;;;;;;;4917965;29;20039;-68
2023/02/01 05:17:30;;;;;;;1.33;0.85;;;;;;;;;;4917725;29;20040;-69
2023/02/01 05:19:56;;;;;;;2.17;1.08;;;;;;;;;;4917193;29;20059;-68
2023/02/01 05:22:21;;;;;;;1.98;0.93;;;;;;;;;;4918011;29;20106;-71
2023/02/01 05:24:47;;;;;;;2.88;1.13;;;;;;;;;;4900174;29;20074;-71
2023/02/01 05:27:12;;;;;;;1.25;0.90;;;;;;;;;;4917466;29;20032;-71
2023/02/01 05:29:37;;;;;;;2.25;1.33;;;;;;;;;;4917628;29;20466;-70
2023/02/01 05:32:03;;;;;;;2.85;1.60;;;;;;;;;;4916899;29;20031;-68
2023/02/01 05:34:28;;;;;;;4.30;1.45;;;;;;;;;;4916981;29;20076;-69
2023/02/01 05:36:53;;;;;;;1.20;0.90;;;;;;;;;;4900532;29;20032;-69
2023/02/01 05:39:19;;;;;;;1.20;0.82;;;;;;;;;;4916204;29;20107;-70
2023/02/01 05:41:44;;;;;;;4.05;1.67;;;;;;;;;;4917134;29;20128;-70
2023/02/01 05:44:10;;;;;;;2.95;2.00;;;;;;;;;;4917340;29;20032;-70
2023/02/01 05:46:35;;;;;;;2.05;1.38;;;;;;;;;;4900061;29;20059;-70
2023/02/01 05:49:01;;;;;;;2.88;1.25;;;;;;;;;;4915861;29;21622;-70
2023/02/01 05:51:26;;;;;;;1.85;1.15;;;;;;;;;;4883575;29;20099;-70
2023/02/01 05:53:51;;;;;;;1.75;1.40;;;;;;;;;;4882239;29;20111;-69
2023/02/01 05:56:17;;;;;;;3.13;1.52;;;;;;;;;;4896561;29;20084;-69
2023/02/01 05:58:42;;;;;;;2.67;1.38;;;;;;;;;;4881240;29;20032;-69
2023/02/01 06:01:07;;;;;;;3.25;1.92;;;;;;;;;;4897448;29;20372;-71
2023/02/01 06:03:33;;;;;;;8.40;4.15;;;;;;;;;;4914844;29;20488;-70
2023/02/01 06:06:00;;;;;;;5.85;3.10;;;;;;;;;;4897626;29;20043;-66
2023/02/01 06:08:26;;;;;;;9.18;3.75;;;;;;;;;;4914448;29;20040;-66
2023/02/01 06:11:02;;;;;;;9.07;4.65;;;;;;;;;;4913873;29;20153;-67
2023/02/01 06:13:28;;;;;;;9.63;5.18;;;;;;;;;;4913744;29;20036;-69
2023/02/01 06:15:53;;;;;;;7.45;3.78;;;;;;;;;;4913514;29;20574;-69
2023/02/01 06:18:19;;;;;;;5.97;3.25;;;;;;;;;;4914275;29;20496;-69
2023/02/01 06:20:44;;;;;;;5.25;3.22;;;;;;;;;;4897446;29;20032;-69
2023/02/01 06:23:09;;;;;;;5.90;3.45;;;;;;;;;;4914077;29;20111;-69
2023/02/01 06:25:37;;;;;;;5.55;3.50;;;;;;;;;;4914062;29;20548;-69
2023/02/01 06:28:05;;;;;;;3.65;3.30;;;;;;;;;;4897637;29;20595;-69
2023/02/01 06:30:31;;;;;;;3.65;3.30;;;;;;;;;;4917010;29;20067;-69
2023/02/01 06:32:56;;;;;;;4.88;3.33;;;;;;;;;;4885767;29;20055;-69
2023/02/01 06:35:21;;;;;;;4.95;3.28;;;;;;;;;;4903292;29;20044;-70
2023/02/01 06:37:47;;;;;;;4.38;3.25;;;;;;;;;;4921314;29;20031;-70
2023/02/01 06:40:13;;;;;;;4.53;3.20;;;;;;;;;;4920768;29;20155;-70
2023/02/01 06:42:39;;;;;;;5.10;3.53;;;;;;;;;;4920164;29;20040;-70
2023/02/01 06:45:06;;;;;;;3.92;2.75;;;;;;;;;;4887874;29;20028;-73
2023/02/01 06:47:31;;;;;;;4.07;3.30;;;;;;;;;;4919008;23;20060;-72
2023/02/01 06:49:57;;;;;;;3.63;3.30;;;;;;;;;;4900512;29;20385;-73
2023/02/01 06:52:22;;;;;;;4.78;3.10;;;;;;;;;;4899941;29;20084;-72
2023/02/01 06:54:47;;;;;;;5.13;3.40;;;;;;;;;;4899248;29;20549;-73
2023/02/01 06:57:14;;;;;;;5.78;3.33;;;;;;;;;;4898757;29;20036;-72
2023/02/01 06:59:39;;;;;;;5.30;3.55;;;;;;;;;;4900163;29;20100;-69
2023/02/01 07:02:05;;;;;;;5.80;3.60;;;;;;;;;;4866435;29;20062;-72
2023/02/01 07:04:30;;;;;;;6.53;3.80;;;;;;;;;;4898653;29;20156;-72
2023/02/01 07:06:55;;;;;;;5.10;3.13;;;;;;;;;;4898964;29;20020;-72
2023/02/01 07:09:21;;;;;;;4.63;3.53;;;;;;;;;;4897145;29;20075;-69
2023/02/01 07:11:46;;;;;;;6.97;4.00;;;;;;;;;;4898486;29;20112;-69
2023/02/01 07:14:12;;;;;;;5.85;4.03;;;;;;;;;;4901552;29;20025;-69
2023/02/01 07:16:37;;;;;;;5.22;3.70;;;;;;;;;;4901319;29;20367;-69
2023/02/01 07:19:03;;;;;;;6.80;3.63;;;;;;;;;;4899990;29;20040;-69
2023/02/01 07:21:28;;;;;;;4.75;3.55;;;;;;;;;;4901191;29;20036;-69
2023/02/01 07:23:54;;;;;;;6.65;4.00;;;;;;;;;;4901149;29;20032;-69
2023/02/01 07:26:19;;;;;;;7.30;3.90;;;;;;;;;;4900230;29;20414;-69
2023/02/01 07:28:44;;;;;;;9.63;4.55;;;;;;;;;;4900965;29;20401;-69
2023/02/01 07:31:11;;;;;;;7.80;4.93;;;;;;;;;;4899742;29;20486;-69
2023/02/01 07:33:37;;;;;;;8.52;4.97;;;;;;;;;;4900942;29;20085;-69
2023/02/01 07:36:05;;;;;;;11.27;5.90;;;;;;;;;;4901152;29;20036;-69
2023/02/01 07:38:30;;;;;;;10.10;6.72;;;;;;;;;;4884047;29;20028;-69
2023/02/01 07:40:59;;;;;;;9.45;5.93;;;;;;;;;;4899194;29;20033;-69
2023/02/01 07:43:25;;;;;;;10.32;5.28;;;;;;;;;;4899080;29;20388;-69
2023/02/01 07:45:51;;;;;;;8.10;5.25;;;;;;;;;;4900772;29;20128;-69
2023/02/01 07:48:17;;;;;;;9.02;5.50;;;;;;;;;;4900164;29;20041;-69
2023/02/01 07:50:42;;;;;;;11.93;6.18;;;;;;;;;;4899336;29;20092;-69
2023/02/01 07:53:07;;;;;;;9.02;5.28;;;;;;;;;;4899774;29;20084;-69
2023/02/01 07:55:34;;;;;;;8.20;5.63;;;;;;;;;;4900849;29;20032;-69
2023/02/01 07:58:00;;;;;;;10.60;5.97;;;;;;;;;;4900589;29;20040;-69
2023/02/01 08:03:10;;;;;;;12.18;5.85;;;;;;;;;;4900721;29;20041;-69
2023/02/01 08:05:36;;;;;;;10.13;4.90;;;;;;;;;;4900948;29;20047;-69
2023/02/01 08:08:02;;;;;;;7.40;5.05;;;;;;;;;;4900553;29;20076;-69
2023/02/01 08:10:27;;;;;;;11.02;5.53;;;;;;;;;;4883439;29;20462;-69
2023/02/01 08:12:57;;;;;;;10.20;5.65;;;;;;;;;;4900563;29;20036;-69
2023/02/01 08:15:23;;;;;;;14.23;6.72;;;;;;;;;;4900498;29;20075;-69
2023/02/01 08:17:48;;;;;;;13.95;6.68;;;;;;;;;;4900718;29;20025;-69
2023/02/01 08:20:14;;;;;;;16.35;7.25;;;;;;;;;;4898890;29;20111;-69
2023/02/01 08:22:41;;;;;;;12.65;6.95;;;;;;;;;;4900109;29;20474;-69
2023/02/01 08:25:07;;;;;;;11.65;6.05;;;;;;;;;;4900333;29;20025;-69
2023/02/01 08:27:32;;;;;;;14.77;6.32;;;;;;;;;;4900261;29;20032;-69
2023/02/01 08:29:59;;;;;;;17.08;7.50;;;;;;;;;;4899865;29;20123;-69
2023/02/01 08:32:24;;;;;;;13.63;6.93;;;;;;;;;;4900180;29;20044;-69
2023/02/01 08:34:49;;;;;;;12.20;6.10;;;;;;;;;;4900121;29;20036;-69
2023/02/01 08:37:17;;;;;;;9.77;5.60;;;;;;;;;;4899854;29;20041;-69
2023/02/01 08:39:46;;;;;;;13.30;5.53;;;;;;;;;;4898561;29;20410;-69
2023/02/01 08:45:10;;;;;;;13.02;6.32;;;;;;;;;;4894443;29;20045;-69
2023/02/01 08:47:35;;;;;;;10.45;5.60;;;;;;;;;;4910364;29;20039;-69
2023/02/01 08:50:01;;;;;;;9.43;4.72;;;;;;;;;;4918352;29;20043;-69
2023/02/01 08:52:26;;;;;;;11.35;5.70;;;;;;;;;;4918494;29;20071;-72
2023/02/01 08:54:53;;;;;;;10.80;5.60;;;;;;;;;;4918353;29;20028;-72
2023/02/01 08:57:19;;;;;;;11.23;5.15;;;;;;;;;;4901682;29;20193;-72
2023/02/01 08:59:44;;;;;;;12.05;6.15;;;;;;;;;;4918244;29;20517;-72
2023/02/01 09:02:13;;;;;;;10.45;5.93;;;;;;;;;;4901272;29;20028;-72
2023/02/01 09:04:39;;;;;;;10.75;5.45;;;;;;;;;;4918422;29;20043;-72
2023/02/01 09:07:04;;;;;;;9.93;5.40;;;;;;;;;;4918645;29;20028;-72
2023/02/01 09:09:29;;;;;;;10.60;6.03;;;;;;;;;;4886119;29;20032;-72
2023/02/01 09:11:54;;;;;;;15.02;7.35;;;;;;;;;;4918323;29;20465;-69
2023/02/01 09:14:20;;;;;;;16.30;6.95;;;;;;;;;;4918589;29;20064;-69
2023/02/01 09:16:45;;;;;;;15.95;6.80;;;;;;;;;;4917966;29;20388;-69
2023/02/01 09:19:10;;;;;;;12.77;6.80;;;;;;;;;;4932058;23;20067;-72
2023/02/01 09:21:36;;;;;;;14.82;7.63;;;;;;;;;;4917861;29;20481;-72
2023/02/01 09:24:01;;;;;;;19.50;9.70;;;;;;;;;;4900869;29;20032;-72
2023/02/01 09:26:26;;;;;;;18.45;9.85;;;;;;;;;;4917707;29;20031;-72
2023/02/01 09:28:52;;;;;;;21.20;10.45;;;;;;;;;;4917714;29;20021;-72
2023/02/01 09:31:18;;;;;;;15.15;7.30;;;;;;;;;;4933248;23;20102;-69
2023/02/01 09:33:43;;;;;;;16.45;7.57;;;;;;;;;;4944135;23;20168;-72
2023/02/01 09:36:09;;;;;;;13.48;7.50;;;;;;;;;;4936615;29;20433;-72
2023/02/01 09:38:34;;;;;;;9.85;5.65;;;;;;;;;;4919552;29;20083;-72
2023/02/01 09:41:00;;;;;;;15.10;7.55;;;;;;;;;;4919726;29;20035;-72
2023/02/01 09:43:46;;;;;;;15.43;6.88;;;;;;;;;;4936885;29;20036;-72
2023/02/01 09:46:23;;;;;;;16.52;8.40;;;;;;;;;;4919697;29;20484;-72
2023/02/01 09:48:49;;;;;;;12.70;7.30;;;;;;;;;;4936431;29;20036;-72
2023/02/01 09:51:16;;;;;;;14.27;7.00;;;;;;;;;;4936709;29;20039;-72
2023/02/01 09:53:43;;;;;;;18.85;8.50;;;;;;;;;;4903926;29;20154;-72
2023/02/01 09:56:13;;;;;;;15.95;8.73;;;;;;;;;;4919420;29;20604;-69
2023/02/01 09:58:51;;;;;;;9.15;5.35;;;;;;;;;;4936411;29;20111;-69
2023/02/01 10:01:19;;;;;;;16.70;10.45;;;;;;;;;;4936340;29;20032;-69
2023/02/01 10:03:44;;;;;;;18.50;10.70;;;;;;;;;;4936299;29;20019;-69
2023/02/01 10:06:25;;;;;;;16.00;8.77;;;;;;;;;;4935814;29;20027;-69
2023/02/01 10:09:19;;;;;;;18.17;10.07;;;;;;;;;;4919251;29;20167;-69
2023/02/01 10:11:56;;;;;;;14.70;8.45;;;;;;;;;;4868668;29;20048;-69
2023/02/01 10:14:31;;;;;;;10.32;4.53;;;;;;;;;;4936293;29;20028;-69
2023/02/01 10:17:17;;;;;;;15.32;8.05;;;;;;;;;;4936281;29;20032;-69
2023/02/01 10:19:43;;;;;;;16.10;7.43;;;;;;;;;;4935993;29;20384;-69
2023/02/01 10:22:08;;;;;;;11.40;7.40;;;;;;;;;;4936123;29;20036;-69
2023/02/01 10:24:40;;;;;;;11.93;7.45;;;;;;;;;;4936214;29;20042;-69
2023/02/01 10:27:13;;;;;;;10.30;5.70;;;;;;;;;;4919339;29;20044;-69
2023/02/01 10:29:43;;;;;;;14.25;7.97;;;;;;;;;;4918903;29;20027;-69
2023/02/01 10:32:13;;;;;;;14.52;7.60;;;;;;;;;;4935994;29;20027;-70
2023/02/01 10:34:39;;;;;;;18.60;8.65;;;;;;;;;;4936192;29;20075;-69
2023/02/01 10:37:19;;;;;;;13.88;7.03;;;;;;;;;;4935982;29;20042;-69
2023/02/01 10:39:48;;;;;;;10.98;6.47;;;;;;;;;;4919052;29;20046;-69
2023/02/01 10:42:14;;;;;;;9.57;5.50;;;;;;;;;;4935962;29;20539;-69
2023/02/01 10:44:45;;;;;;;13.05;8.38;;;;;;;;;;4935952;29;20035;-69
2023/02/01 10:47:11;;;;;;;13.50;6.70;;;;;;;;;;4935909;29;20039;-69
2023/02/01 10:49:38;;;;;;;12.77;7.00;;;;;;;;;;4918883;29;20036;-69
2023/02/01 10:52:07;;;;;;;11.85;6.53;;;;;;;;;;4935964;29;20024;-69
2023/02/01 10:54:33;;;;;;;14.68;7.45;;;;;;;;;;4935886;29;20036;-69
2023/02/01 10:56:59;;;;;;;7.97;4.93;;;;;;;;;;4919000;29;20043;-69
2023/02/01 10:59:27;;;;;;;15.60;7.32;;;;;;;;;;4918654;29;20040;-69
2023/02/01 11:01:58;;;;;;;18.42;8.95;;;;;;;;;;4935768;29;20122;-69
2023/02/01 11:04:24;;;;;;;12.82;7.57;;;;;;;;;;4918659;29;20433;-69
2023/02/01 11:06:54;;;;;;;13.93;7.22;;;;;;;;;;4935732;29;20111;-69
2023/02/01 11:09:24;;;;;;;11.32;6.05;;;;;;;;;;4918751;29;20036;-69
2023/02/01 11:11:50;;;;;;;10.77;5.27;;;;;;;;;;4903043;29;20396;-69
2023/02/01 11:14:17;;;;;;;11.90;6.80;;;;;;;;;;4918760;29;20272;-69
2023/02/01 11:16:47;;;;;;;11.52;6.70;;;;;;;;;;4936547;29;20030;-69
2023/02/01 11:19:14;;;;;;;11.00;7.27;;;;;;;;;;4923488;29;20050;-69
2023/02/01 11:21:41;;;;;;;13.75;6.40;;;;;;;;;;4923228;29;20035;-69
2023/02/01 11:24:22;;;;;;;11.93;6.05;;;;;;;;;;4938969;29;20366;-69
2023/02/01 11:26:47;;;;;;;9.05;5.47;;;;;;;;;;4921842;29;20035;-70
2023/02/01 11:29:17;;;;;;;10.93;6.00;;;;;;;;;;4938815;29;20047;-70
2023/02/01 11:31:43;;;;;;;8.95;4.72;;;;;;;;;;4921727;29;20032;-70
2023/02/01 11:34:12;;;;;;;7.15;4.53;;;;;;;;;;4938641;29;20040;-72
2023/02/01 11:36:38;;;;;;;9.93;5.40;;;;;;;;;;4938743;29;20090;-72
2023/02/01 11:39:17;;;;;;;11.25;5.80;;;;;;;;;;4938679;29;20094;-72
2023/02/01 11:41:54;;;;;;;8.98;5.40;;;;;;;;;;4921553;29;20484;-72
2023/02/01 11:44:39;;;;;;;9.98;5.38;;;;;;;;;;4938631;29;20500;-72
2023/02/01 11:47:22;;;;;;;9.38;5.68;;;;;;;;;;4938846;29;20118;-72
2023/02/01 11:49:49;;;;;;;11.27;7.32;;;;;;;;;;4938562;29;20127;-72
2023/02/01 11:52:20;;;;;;;9.15;5.47;;;;;;;;;;4947378;23;20516;-70
2023/02/01 11:54:45;;;;;;;7.18;4.78;;;;;;;;;;4938562;29;20124;-70
2023/02/01 11:57:17;;;;;;;9.63;4.68;;;;;;;;;;4938533;29;20043;-70
2023/02/01 12:00:06;;;;;;;7.82;5.00;;;;;;;;;;4921268;29;20031;-70
2023/02/01 12:02:52;;;;;;;8.05;5.07;;;;;;;;;;4945790;23;20389;-70
2023/02/01 12:05:41;;;;;;;7.15;4.65;;;;;;;;;;4947993;23;20066;-70
2023/02/01 12:08:16;;;;;;;9.50;5.35;;;;;;;;;;4938149;29;20084;-70
2023/02/01 12:11:00;;;;;;;7.72;4.43;;;;;;;;;;4905678;29;20046;-70
2023/02/01 12:13:45;;;;;;;9.88;4.72;;;;;;;;;;4921427;29;20365;-70
2023/02/01 12:16:20;;;;;;;6.50;4.30;;;;;;;;;;4921005;29;20028;-70
2023/02/01 12:18:56;;;;;;;6.35;4.63;;;;;;;;;;4937985;29;20387;-70
2023/02/01 12:21:40;;;;;;;6.00;5.22;;;;;;;;;;4905217;29;20452;-72
2023/02/01 12:24:05;;;;;;;8.73;5.30;;;;;;;;;;4938187;29;20075;-72
2023/02/01 12:26:54;;;;;;;8.23;5.40;;;;;;;;;;4937986;29;20110;-72
2023/02/01 12:29:35;;;;;;;10.60;5.90;;;;;;;;;;4894376;29;20059;-72
2023/02/01 12:32:00;;;;;;;8.50;5.45;;;;;;;;;;4904994;29;20034;-72
2023/02/01 12:34:34;;;;;;;8.52;5.57;;;;;;;;;;4920966;29;20058;-72
2023/02/01 12:37:24;;;;;;;7.93;5.03;;;;;;;;;;4920600;29;20095;-72
2023/02/01 12:39:53;;;;;;;10.43;4.43;;;;;;;;;;4937770;29;20036;-72
2023/02/01 12:42:18;;;;;;;9.60;5.65;;;;;;;;;;4920474;29;20031;-72
2023/02/01 12:44:47;;;;;;;8.75;5.38;;;;;;;;;;4921140;29;20089;-73
2023/02/01 12:47:17;;;;;;;10.32;6.45;;;;;;;;;;4920861;29;20473;-73
2023/02/01 12:50:01;;;;;;;10.98;5.65;;;;;;;;;;4923497;29;20036;-72
2023/02/01 12:52:42;;;;;;;12.32;6.78;;;;;;;;;;4941003;29;20028;-72
2023/02/01 12:55:26;;;;;;;8.10;5.88;;;;;;;;;;4937534;29;20110;-72
2023/02/01 12:58:03;;;;;;;13.02;6.75;;;;;;;;;;4937311;29;20111;-72
2023/02/01 13:00:32;;;;;;;10.35;6.10;;;;;;;;;;4920619;29;20042;-72
2023/02/01 13:03:01;;;;;;;11.63;6.25;;;;;;;;;;4904378;29;20027;-72
2023/02/01 13:05:29;;;;;;;10.27;6.63;;;;;;;;;;4919965;29;20056;-72
2023/02/01 13:08:14;;;;;;;9.13;4.40;;;;;;;;;;4920084;29;20047;-72
2023/02/01 13:10:45;;;;;;;9.57;5.65;;;;;;;;;;4937149;29;20528;-72
2023/02/01 13:13:16;;;;;;;10.98;5.40;;;;;;;;;;4937204;29;20024;-73
2023/02/01 13:16:13;;;;;;;11.57;5.85;;;;;;;;;;4920050;29;20031;-72
2023/02/01 13:18:41;;;;;;;9.75;5.63;;;;;;;;;;4919825;29;20119;-72
2023/02/01 13:21:25;;;;;;;10.30;5.65;;;;;;;;;;4936995;29;20020;-72
2023/02/01 13:23:51;;;;;;;9.18;5.30;;;;;;;;;;4936842;29;20063;-72
2023/02/01 13:26:16;;;;;;;7.78;5.15;;;;;;;;;;4936888;29;20074;-72
2023/02/01 13:28:47;;;;;;;9.52;5.60;;;;;;;;;;4936748;29;20032;-72
2023/02/01 13:31:25;;;;;;;12.20;6.25;;;;;;;;;;4936838;29;20055;-72
2023/02/01 13:33:56;;;;;;;9.85;6.00;;;;;;;;;;4936738;29;20023;-72
2023/02/01 13:36:27;;;;;;;11.20;6.47;;;;;;;;;;4936705;29;20392;-72
2023/02/01 13:38:59;;;;;;;8.85;5.10;;;;;;;;;;4936436;29;20031;-72
2023/02/01 13:41:29;;;;;;;8.73;5.63;;;;;;;;;;4919232;29;20058;-72
2023/02/01 13:43:54;;;;;;;;;;;;;;;;;;4919936;29;20439;-72
2023/02/01 13:46:20;;;;;;;10.57;5.63;;;;;;;;;;4919442;29;19911;-72
2023/02/01 13:48:48;;;;;;;10.18;6.05;;;;;;;;;;4936349;29;20268;-72
2023/02/01 13:51:14;;;;;;;10.05;5.10;;;;;;;;;;4936445;29;20039;-72
2023/02/01 13:53:44;;;;;;;7.38;5.28;;;;;;;;;;4936464;29;20030;-72
2023/02/01 13:56:16;;;;;;;8.43;4.40;;;;;;;;;;4936504;29;20110;-72
2023/02/01 13:58:42;;;;;;;7.00;4.10;;;;;;;;;;4919392;29;20050;-72
2023/02/01 14:01:24;;;;;;;8.90;4.80;;;;;;;;;;4936416;29;20381;-72
2023/02/01 14:03:52;;;;;;;5.80;3.55;;;;;;;;;;4936636;29;20039;-72
2023/02/01 14:06:26;;;;;;;6.40;3.97;;;;;;;;;;4936141;29;20046;-72
2023/02/01 14:09:09;;;;;;;9.55;4.72;;;;;;;;;;4936228;29;20028;-72
2023/02/01 14:11:42;;;;;;;8.18;4.68;;;;;;;;;;4919181;29;20046;-72
2023/02/01 14:14:17;;;;;;;7.18;4.72;;;;;;;;;;4919268;29;20028;-72
2023/02/01 14:16:54;;;;;;;8.55;4.68;;;;;;;;;;4936374;29;20032;-72
2023/02/01 14:19:26;;;;;;;6.85;4.50;;;;;;;;;;4936299;29;20035;-72
2023/02/01 14:22:01;;;;;;;7.47;4.57;;;;;;;;;;4919652;29;20038;-72
2023/02/01 14:24:31;;;;;;;7.20;4.78;;;;;;;;;;4919016;29;20478;-70
2023/02/01 14:26:57;;;;;;;;;;;;;;;;;;4936661;29;20092;-69
2023/02/01 14:29:25;;;;;;;5.30;3.97;;;;;;;;;;4919069;29;19942;-69
2023/02/01 14:31:59;;;;;;;9.60;4.63;;;;;;;;;;4919023;29;20748;-70
2023/02/01 14:34:29;;;;;;;8.43;4.70;;;;;;;;;;4918955;29;20031;-71
2023/02/01 14:36:59;;;;;;;7.32;4.90;;;;;;;;;;4914014;23;20056;-70
2023/02/01 14:39:26;;;;;;;6.32;4.40;;;;;;;;;;4898129;29;20463;-70
2023/02/01 14:41:53;;;;;;;7.07;4.47;;;;;;;;;;4901274;29;20055;-70
2023/02/01 14:44:26;;;;;;;5.70;3.45;;;;;;;;;;4915759;29;20116;-70
2023/02/01 14:47:04;;;;;;;6.53;4.85;;;;;;;;;;4915221;29;20051;-70
2023/02/01 14:49:36;;;;;;;5.78;3.45;;;;;;;;;;4913755;29;20055;-70
2023/02/01 14:52:04;;;;;;;9.65;5.38;;;;;;;;;;4900938;29;20028;-69
2023/02/01 14:54:29;;;;;;;6.57;4.97;;;;;;;;;;4918450;29;20173;-69
2023/02/01 14:56:55;;;;;;;4.45;4.03;;;;;;;;;;4918070;29;20020;-69
2023/02/01 14:59:22;;;;;;;7.90;5.18;;;;;;;;;;4918899;29;20098;-69
2023/02/01 15:01:54;;;;;;;7.18;4.45;;;;;;;;;;4917978;29;20039;-70
2023/02/01 15:04:21;;;;;;;8.88;5.75;;;;;;;;;;4918766;29;20544;-69
2023/02/01 15:06:52;;;;;;;8.48;6.15;;;;;;;;;;4916869;29;20381;-70
2023/02/01 15:09:24;;;;;;;10.90;5.80;;;;;;;;;;4916356;29;20032;-70
2023/02/01 15:12:24;;;;;;;6.47;4.38;;;;;;;;;;4918187;29;20032;-69
2023/02/01 15:15:09;;;;;;;7.32;4.90;;;;;;;;;;4908345;29;20493;-70
2023/02/01 15:17:34;;;;;;;7.93;4.97;;;;;;;;;;4918227;29;20047;-70
2023/02/01 15:20:12;;;;;;;9.57;6.22;;;;;;;;;;4916837;29;20035;-69
2023/02/01 15:22:38;;;;;;;9.00;6.43;;;;;;;;;;4916104;29;20127;-70